sensor_id;sensor_type;location;lat;lon;timestamp;P1;durP1;ratioP1;P2;durP2;ratioP2
71665;SDS011;59503;53.486;10.196;2023-10-19T00:00:39;13.10;;;6.70;;
71665;SDS011;59503;53.486;10.196;2023-10-19T00:03:09;12.05;;;6.10;;
71665;SDS011;59503;53.486;10.196;2023-10-19T00:05:36;13.98;;;6.60;;
71665;SDS011;59503;53.486;10.196;2023-10-19T00:08:03;17.63;;;6.65;;
71665;SDS011;59503;53.486;10.196;2023-10-19T00:10:51;22.02;;;7.90;;
71665;SDS011;59503;53.486;10.196;2023-10-19T00:13:41;11.23;;;6.10;;
71665;SDS011;59503;53.486;10.196;2023-10-19T00:16:09;14.02;;;6.78;;
71665;SDS011;59503;53.486;10.196;2023-10-19T00:18:42;12.43;;;6.50;;
71665;SDS011;59503;53.486;10.196;2023-10-19T00:21:08;11.38;;;6.28;;
71665;SDS011;59503;53.486;10.196;2023-10-19T00:23:50;14.52;;;6.80;;
71665;SDS011;59503;53.486;10.196;2023-10-19T00:26:20;10.73;;;6.43;;
71665;SDS011;59503;53.486;10.196;2023-10-19T00:28:46;13.90;;;7.05;;
71665;SDS011;59503;53.486;10.196;2023-10-19T00:31:14;14.57;;;6.90;;
71665;SDS011;59503;53.486;10.196;2023-10-19T00:33:40;16.63;;;7.90;;
71665;SDS011;59503;53.486;10.196;2023-10-19T00:36:06;15.10;;;7.43;;
71665;SDS011;59503;53.486;10.196;2023-10-19T00:38:33;14.27;;;7.47;;
71665;SDS011;59503;53.486;10.196;2023-10-19T00:41:02;14.32;;;7.28;;
71665;SDS011;59503;53.486;10.196;2023-10-19T00:43:35;16.27;;;7.03;;
71665;SDS011;59503;53.486;10.196;2023-10-19T00:46:06;14.52;;;7.00;;
71665;SDS011;59503;53.486;10.196;2023-10-19T00:48:35;14.98;;;7.30;;
71665;SDS011;59503;53.486;10.196;2023-10-19T00:51:02;13.33;;;7.30;;
71665;SDS011;59503;53.486;10.196;2023-10-19T00:53:53;19.42;;;7.50;;
71665;SDS011;59503;53.486;10.196;2023-10-19T00:56:19;15.63;;;7.50;;
71665;SDS011;59503;53.486;10.196;2023-10-19T00:58:49;15.65;;;7.80;;
71665;SDS011;59503;53.486;10.196;2023-10-19T01:01:22;14.38;;;6.97;;
71665;SDS011;59503;53.486;10.196;2023-10-19T01:03:52;14.83;;;7.67;;
71665;SDS011;59503;53.486;10.196;2023-10-19T01:06:21;14.73;;;7.55;;
71665;SDS011;59503;53.486;10.196;2023-10-19T01:08:48;15.55;;;7.40;;
71665;SDS011;59503;53.486;10.196;2023-10-19T01:11:16;15.25;;;7.72;;
71665;SDS011;59503;53.486;10.196;2023-10-19T01:13:45;12.45;;;6.85;;
71665;SDS011;59503;53.486;10.196;2023-10-19T01:16:12;14.77;;;7.90;;
71665;SDS011;59503;53.486;10.196;2023-10-19T01:18:52;15.25;;;6.63;;
71665;SDS011;59503;53.486;10.196;2023-10-19T01:21:23;12.38;;;7.07;;
71665;SDS011;59503;53.486;10.196;2023-10-19T01:24:05;15.23;;;8.27;;
71665;SDS011;59503;53.486;10.196;2023-10-19T01:26:32;12.98;;;7.25;;
71665;SDS011;59503;53.486;10.196;2023-10-19T01:29:02;12.43;;;6.20;;
71665;SDS011;59503;53.486;10.196;2023-10-19T01:31:34;15.73;;;7.70;;
71665;SDS011;59503;53.486;10.196;2023-10-19T01:34:03;13.68;;;7.07;;
71665;SDS011;59503;53.486;10.196;2023-10-19T01:36:34;14.23;;;7.00;;
71665;SDS011;59503;53.486;10.196;2023-10-19T01:39:09;17.73;;;7.10;;
71665;SDS011;59503;53.486;10.196;2023-10-19T01:41:36;16.57;;;7.40;;
71665;SDS011;59503;53.486;10.196;2023-10-19T01:44:03;13.43;;;7.03;;
71665;SDS011;59503;53.486;10.196;2023-10-19T01:46:32;12.95;;;6.68;;
71665;SDS011;59503;53.486;10.196;2023-10-19T01:49:00;14.55;;;7.22;;
71665;SDS011;59503;53.486;10.196;2023-10-19T01:51:29;16.35;;;7.32;;
71665;SDS011;59503;53.486;10.196;2023-10-19T01:53:58;12.93;;;7.00;;
71665;SDS011;59503;53.486;10.196;2023-10-19T01:56:26;14.68;;;6.50;;
71665;SDS011;59503;53.486;10.196;2023-10-19T01:58:52;14.57;;;6.90;;
71665;SDS011;59503;53.486;10.196;2023-10-19T02:01:19;14.07;;;6.95;;
71665;SDS011;59503;53.486;10.196;2023-10-19T02:03:49;14.40;;;7.72;;
71665;SDS011;59503;53.486;10.196;2023-10-19T02:06:25;15.90;;;7.33;;
71665;SDS011;59503;53.486;10.196;2023-10-19T02:08:56;13.95;;;7.53;;
71665;SDS011;59503;53.486;10.196;2023-10-19T02:11:47;14.02;;;6.97;;
71665;SDS011;59503;53.486;10.196;2023-10-19T02:14:17;18.83;;;8.60;;
71665;SDS011;59503;53.486;10.196;2023-10-19T02:16:49;15.35;;;7.53;;
71665;SDS011;59503;53.486;10.196;2023-10-19T02:19:25;18.53;;;7.93;;
71665;SDS011;59503;53.486;10.196;2023-10-19T02:21:55;14.52;;;7.88;;
71665;SDS011;59503;53.486;10.196;2023-10-19T02:24:23;17.83;;;7.57;;
71665;SDS011;59503;53.486;10.196;2023-10-19T02:26:56;18.42;;;7.95;;
71665;SDS011;59503;53.486;10.196;2023-10-19T02:29:22;11.55;;;7.20;;
71665;SDS011;59503;53.486;10.196;2023-10-19T02:31:48;16.17;;;7.57;;
71665;SDS011;59503;53.486;10.196;2023-10-19T02:34:14;19.45;;;8.05;;
71665;SDS011;59503;53.486;10.196;2023-10-19T02:36:40;12.97;;;7.30;;
71665;SDS011;59503;53.486;10.196;2023-10-19T02:39:07;13.32;;;6.72;;
71665;SDS011;59503;53.486;10.196;2023-10-19T02:41:39;16.58;;;8.05;;
71665;SDS011;59503;53.486;10.196;2023-10-19T02:44:15;15.52;;;7.47;;
71665;SDS011;59503;53.486;10.196;2023-10-19T02:46:48;13.98;;;7.88;;
71665;SDS011;59503;53.486;10.196;2023-10-19T02:49:22;16.13;;;7.07;;
71665;SDS011;59503;53.486;10.196;2023-10-19T02:51:49;13.50;;;6.72;;
71665;SDS011;59503;53.486;10.196;2023-10-19T02:54:19;18.48;;;7.72;;
71665;SDS011;59503;53.486;10.196;2023-10-19T02:56:55;18.87;;;8.27;;
71665;SDS011;59503;53.486;10.196;2023-10-19T02:59:22;17.95;;;7.57;;
71665;SDS011;59503;53.486;10.196;2023-10-19T03:01:53;14.88;;;7.47;;
71665;SDS011;59503;53.486;10.196;2023-10-19T03:04:26;14.65;;;7.63;;
71665;SDS011;59503;53.486;10.196;2023-10-19T03:06:54;19.23;;;7.93;;
71665;SDS011;59503;53.486;10.196;2023-10-19T03:09:21;14.27;;;6.80;;
71665;SDS011;59503;53.486;10.196;2023-10-19T03:11:53;14.85;;;8.05;;
71665;SDS011;59503;53.486;10.196;2023-10-19T03:14:21;17.65;;;7.75;;
71665;SDS011;59503;53.486;10.196;2023-10-19T03:16:50;15.10;;;7.13;;
71665;SDS011;59503;53.486;10.196;2023-10-19T03:19:16;16.95;;;8.10;;
71665;SDS011;59503;53.486;10.196;2023-10-19T03:21:42;21.30;;;8.23;;
71665;SDS011;59503;53.486;10.196;2023-10-19T03:24:08;15.63;;;7.70;;
71665;SDS011;59503;53.486;10.196;2023-10-19T03:26:38;18.17;;;8.13;;
71665;SDS011;59503;53.486;10.196;2023-10-19T03:29:08;17.40;;;8.48;;
71665;SDS011;59503;53.486;10.196;2023-10-19T03:31:38;18.83;;;8.02;;
71665;SDS011;59503;53.486;10.196;2023-10-19T03:34:10;22.13;;;8.35;;
71665;SDS011;59503;53.486;10.196;2023-10-19T03:36:38;18.20;;;8.85;;
71665;SDS011;59503;53.486;10.196;2023-10-19T03:39:04;18.43;;;9.43;;
71665;SDS011;59503;53.486;10.196;2023-10-19T03:41:42;19.90;;;8.70;;
71665;SDS011;59503;53.486;10.196;2023-10-19T03:44:09;18.15;;;9.57;;
71665;SDS011;59503;53.486;10.196;2023-10-19T03:46:49;27.95;;;10.55;;
71665;SDS011;59503;53.486;10.196;2023-10-19T03:49:29;21.13;;;9.50;;
71665;SDS011;59503;53.486;10.196;2023-10-19T03:52:03;19.23;;;9.20;;
71665;SDS011;59503;53.486;10.196;2023-10-19T03:54:35;18.83;;;10.30;;
71665;SDS011;59503;53.486;10.196;2023-10-19T03:57:05;22.83;;;10.48;;
71665;SDS011;59503;53.486;10.196;2023-10-19T03:59:36;27.73;;;11.02;;
71665;SDS011;59503;53.486;10.196;2023-10-19T04:02:03;22.08;;;9.70;;
71665;SDS011;59503;53.486;10.196;2023-10-19T04:04:37;25.23;;;10.43;;
71665;SDS011;59503;53.486;10.196;2023-10-19T04:07:04;24.63;;;10.23;;
71665;SDS011;59503;53.486;10.196;2023-10-19T04:09:36;20.50;;;10.35;;
71665;SDS011;59503;53.486;10.196;2023-10-19T04:12:22;21.88;;;10.35;;
71665;SDS011;59503;53.486;10.196;2023-10-19T04:14:48;21.95;;;10.75;;
71665;SDS011;59503;53.486;10.196;2023-10-19T04:17:13;26.47;;;10.77;;
71665;SDS011;59503;53.486;10.196;2023-10-19T04:19:39;29.67;;;11.75;;
71665;SDS011;59503;53.486;10.196;2023-10-19T04:22:04;24.50;;;11.00;;
71665;SDS011;59503;53.486;10.196;2023-10-19T04:24:30;22.33;;;11.03;;
71665;SDS011;59503;53.486;10.196;2023-10-19T04:26:58;24.73;;;11.05;;
71665;SDS011;59503;53.486;10.196;2023-10-19T04:29:24;23.65;;;10.82;;
71665;SDS011;59503;53.486;10.196;2023-10-19T04:31:52;24.00;;;10.85;;
71665;SDS011;59503;53.486;10.196;2023-10-19T04:34:22;23.20;;;11.47;;
71665;SDS011;59503;53.486;10.196;2023-10-19T04:36:48;25.23;;;10.55;;
71665;SDS011;59503;53.486;10.196;2023-10-19T04:39:13;23.30;;;10.82;;
71665;SDS011;59503;53.486;10.196;2023-10-19T04:41:39;25.10;;;10.77;;
71665;SDS011;59503;53.486;10.196;2023-10-19T04:44:06;26.58;;;11.80;;
71665;SDS011;59503;53.486;10.196;2023-10-19T04:46:33;21.97;;;10.93;;
71665;SDS011;59503;53.486;10.196;2023-10-19T04:48:59;25.67;;;11.43;;
71665;SDS011;59503;53.486;10.196;2023-10-19T04:51:24;30.13;;;12.15;;
71665;SDS011;59503;53.486;10.196;2023-10-19T04:53:50;23.83;;;10.87;;
71665;SDS011;59503;53.486;10.196;2023-10-19T04:56:15;23.87;;;11.30;;
71665;SDS011;59503;53.486;10.196;2023-10-19T04:58:41;24.63;;;11.00;;
71665;SDS011;59503;53.486;10.196;2023-10-19T05:01:06;26.50;;;12.40;;
71665;SDS011;59503;53.486;10.196;2023-10-19T05:03:32;28.52;;;11.98;;
71665;SDS011;59503;53.486;10.196;2023-10-19T05:05:58;23.70;;;11.13;;
71665;SDS011;59503;53.486;10.196;2023-10-19T05:08:24;28.77;;;11.57;;
71665;SDS011;59503;53.486;10.196;2023-10-19T05:10:53;23.30;;;10.52;;
71665;SDS011;59503;53.486;10.196;2023-10-19T05:13:20;29.67;;;12.68;;
71665;SDS011;59503;53.486;10.196;2023-10-19T05:15:50;28.83;;;12.23;;
71665;SDS011;59503;53.486;10.196;2023-10-19T05:18:15;26.57;;;12.30;;
71665;SDS011;59503;53.486;10.196;2023-10-19T05:20:41;22.83;;;11.03;;
71665;SDS011;59503;53.486;10.196;2023-10-19T05:23:07;25.63;;;11.10;;
71665;SDS011;59503;53.486;10.196;2023-10-19T05:25:34;28.30;;;11.40;;
71665;SDS011;59503;53.486;10.196;2023-10-19T05:28:01;32.92;;;11.25;;
71665;SDS011;59503;53.486;10.196;2023-10-19T05:30:28;26.88;;;10.93;;
71665;SDS011;59503;53.486;10.196;2023-10-19T05:32:55;25.00;;;11.63;;
71665;SDS011;59503;53.486;10.196;2023-10-19T05:35:20;23.13;;;11.27;;
71665;SDS011;59503;53.486;10.196;2023-10-19T05:37:51;28.13;;;12.35;;
71665;SDS011;59503;53.486;10.196;2023-10-19T05:40:17;29.20;;;12.80;;
71665;SDS011;59503;53.486;10.196;2023-10-19T05:42:44;21.92;;;10.52;;
71665;SDS011;59503;53.486;10.196;2023-10-19T05:45:11;28.58;;;11.73;;
71665;SDS011;59503;53.486;10.196;2023-10-19T05:47:42;25.73;;;11.93;;
71665;SDS011;59503;53.486;10.196;2023-10-19T05:50:11;29.25;;;11.27;;
71665;SDS011;59503;53.486;10.196;2023-10-19T05:52:40;26.70;;;12.07;;
71665;SDS011;59503;53.486;10.196;2023-10-19T05:55:07;24.13;;;10.75;;
71665;SDS011;59503;53.486;10.196;2023-10-19T05:57:35;23.95;;;10.63;;
71665;SDS011;59503;53.486;10.196;2023-10-19T06:00:04;24.17;;;11.40;;
71665;SDS011;59503;53.486;10.196;2023-10-19T06:02:30;23.65;;;10.65;;
71665;SDS011;59503;53.486;10.196;2023-10-19T06:04:55;20.07;;;11.07;;
71665;SDS011;59503;53.486;10.196;2023-10-19T06:07:22;23.05;;;10.98;;
71665;SDS011;59503;53.486;10.196;2023-10-19T06:09:50;27.67;;;11.80;;
71665;SDS011;59503;53.486;10.196;2023-10-19T06:12:15;24.40;;;10.70;;
71665;SDS011;59503;53.486;10.196;2023-10-19T06:14:41;25.02;;;10.68;;
71665;SDS011;59503;53.486;10.196;2023-10-19T06:17:06;24.93;;;11.13;;
71665;SDS011;59503;53.486;10.196;2023-10-19T06:19:31;27.47;;;11.70;;
71665;SDS011;59503;53.486;10.196;2023-10-19T06:21:57;24.17;;;10.95;;
71665;SDS011;59503;53.486;10.196;2023-10-19T06:24:22;23.03;;;10.97;;
71665;SDS011;59503;53.486;10.196;2023-10-19T06:26:48;27.53;;;12.00;;
71665;SDS011;59503;53.486;10.196;2023-10-19T06:29:13;29.37;;;11.27;;
71665;SDS011;59503;53.486;10.196;2023-10-19T06:31:39;25.63;;;10.75;;
71665;SDS011;59503;53.486;10.196;2023-10-19T06:34:04;32.03;;;12.03;;
71665;SDS011;59503;53.486;10.196;2023-10-19T06:36:30;29.07;;;10.50;;
71665;SDS011;59503;53.486;10.196;2023-10-19T06:38:55;40.10;;;11.90;;
71665;SDS011;59503;53.486;10.196;2023-10-19T06:41:20;25.80;;;11.45;;
71665;SDS011;59503;53.486;10.196;2023-10-19T06:43:47;24.60;;;10.67;;
71665;SDS011;59503;53.486;10.196;2023-10-19T06:46:12;23.75;;;11.13;;
71665;SDS011;59503;53.486;10.196;2023-10-19T06:48:40;26.02;;;11.75;;
71665;SDS011;59503;53.486;10.196;2023-10-19T06:51:05;29.47;;;11.57;;
71665;SDS011;59503;53.486;10.196;2023-10-19T06:53:31;27.52;;;11.77;;
71665;SDS011;59503;53.486;10.196;2023-10-19T06:55:58;23.40;;;11.15;;
71665;SDS011;59503;53.486;10.196;2023-10-19T06:58:24;24.50;;;11.13;;
71665;SDS011;59503;53.486;10.196;2023-10-19T07:00:51;25.15;;;11.02;;
71665;SDS011;59503;53.486;10.196;2023-10-19T07:03:32;25.52;;;11.98;;
71665;SDS011;59503;53.486;10.196;2023-10-19T07:05:58;26.67;;;12.00;;
71665;SDS011;59503;53.486;10.196;2023-10-19T07:08:24;25.40;;;11.70;;
71665;SDS011;59503;53.486;10.196;2023-10-19T07:10:52;22.60;;;11.25;;
71665;SDS011;59503;53.486;10.196;2023-10-19T07:13:19;23.98;;;11.15;;
71665;SDS011;59503;53.486;10.196;2023-10-19T07:15:46;23.50;;;10.80;;
71665;SDS011;59503;53.486;10.196;2023-10-19T07:18:12;22.90;;;11.13;;
71665;SDS011;59503;53.486;10.196;2023-10-19T07:20:39;29.80;;;11.88;;
71665;SDS011;59503;53.486;10.196;2023-10-19T07:23:04;26.08;;;11.05;;
71665;SDS011;59503;53.486;10.196;2023-10-19T07:25:49;25.77;;;11.00;;
71665;SDS011;59503;53.486;10.196;2023-10-19T07:28:24;26.20;;;11.57;;
71665;SDS011;59503;53.486;10.196;2023-10-19T07:30:53;22.50;;;11.70;;
71665;SDS011;59503;53.486;10.196;2023-10-19T07:33:19;31.00;;;12.80;;
71665;SDS011;59503;53.486;10.196;2023-10-19T07:35:48;25.73;;;12.13;;
71665;SDS011;59503;53.486;10.196;2023-10-19T07:38:21;25.45;;;12.07;;
71665;SDS011;59503;53.486;10.196;2023-10-19T07:40:47;28.23;;;11.50;;
71665;SDS011;59503;53.486;10.196;2023-10-19T07:43:13;27.47;;;11.77;;
71665;SDS011;59503;53.486;10.196;2023-10-19T07:45:38;26.83;;;12.30;;
71665;SDS011;59503;53.486;10.196;2023-10-19T07:48:04;23.97;;;11.73;;
71665;SDS011;59503;53.486;10.196;2023-10-19T07:50:36;27.10;;;12.48;;
71665;SDS011;59503;53.486;10.196;2023-10-19T07:53:03;27.70;;;11.88;;
71665;SDS011;59503;53.486;10.196;2023-10-19T07:55:29;24.92;;;11.45;;
71665;SDS011;59503;53.486;10.196;2023-10-19T07:57:56;26.30;;;11.87;;
71665;SDS011;59503;53.486;10.196;2023-10-19T08:00:25;29.70;;;12.73;;
71665;SDS011;59503;53.486;10.196;2023-10-19T08:02:52;27.50;;;12.05;;
71665;SDS011;59503;53.486;10.196;2023-10-19T08:05:19;22.83;;;10.80;;
71665;SDS011;59503;53.486;10.196;2023-10-19T08:07:45;27.00;;;13.05;;
71665;SDS011;59503;53.486;10.196;2023-10-19T08:10:18;25.23;;;12.77;;
71665;SDS011;59503;53.486;10.196;2023-10-19T08:12:45;29.90;;;11.93;;
71665;SDS011;59503;53.486;10.196;2023-10-19T08:15:16;26.05;;;12.30;;
71665;SDS011;59503;53.486;10.196;2023-10-19T08:17:43;26.38;;;12.77;;
71665;SDS011;59503;53.486;10.196;2023-10-19T08:20:10;31.75;;;13.18;;
71665;SDS011;59503;53.486;10.196;2023-10-19T08:22:52;29.37;;;13.00;;
71665;SDS011;59503;53.486;10.196;2023-10-19T08:25:19;26.10;;;12.48;;
71665;SDS011;59503;53.486;10.196;2023-10-19T08:27:46;26.63;;;12.73;;
71665;SDS011;59503;53.486;10.196;2023-10-19T08:30:16;23.17;;;11.93;;
71665;SDS011;59503;53.486;10.196;2023-10-19T08:32:43;29.65;;;12.43;;
71665;SDS011;59503;53.486;10.196;2023-10-19T08:35:13;31.00;;;13.03;;
71665;SDS011;59503;53.486;10.196;2023-10-19T08:37:39;27.55;;;12.68;;
71665;SDS011;59503;53.486;10.196;2023-10-19T08:40:09;28.75;;;13.13;;
71665;SDS011;59503;53.486;10.196;2023-10-19T08:42:44;35.25;;;13.90;;
71665;SDS011;59503;53.486;10.196;2023-10-19T08:45:11;32.63;;;13.00;;
71665;SDS011;59503;53.486;10.196;2023-10-19T08:47:43;31.45;;;13.70;;
71665;SDS011;59503;53.486;10.196;2023-10-19T08:50:13;31.70;;;13.55;;
71665;SDS011;59503;53.486;10.196;2023-10-19T08:52:41;35.70;;;15.30;;
71665;SDS011;59503;53.486;10.196;2023-10-19T08:55:08;29.65;;;13.35;;
71665;SDS011;59503;53.486;10.196;2023-10-19T08:57:36;32.30;;;13.93;;
71665;SDS011;59503;53.486;10.196;2023-10-19T09:00:02;36.67;;;13.95;;
71665;SDS011;59503;53.486;10.196;2023-10-19T09:02:31;35.03;;;13.82;;
71665;SDS011;59503;53.486;10.196;2023-10-19T09:04:57;28.75;;;14.25;;
71665;SDS011;59503;53.486;10.196;2023-10-19T09:07:25;33.80;;;15.07;;
71665;SDS011;59503;53.486;10.196;2023-10-19T09:09:56;28.40;;;13.80;;
71665;SDS011;59503;53.486;10.196;2023-10-19T09:12:22;31.00;;;14.10;;
71665;SDS011;59503;53.486;10.196;2023-10-19T09:14:48;30.45;;;14.00;;
71665;SDS011;59503;53.486;10.196;2023-10-19T09:17:15;33.72;;;14.45;;
71665;SDS011;59503;53.486;10.196;2023-10-19T09:19:43;32.60;;;13.98;;
71665;SDS011;59503;53.486;10.196;2023-10-19T09:22:09;27.20;;;13.50;;
71665;SDS011;59503;53.486;10.196;2023-10-19T09:24:47;33.45;;;13.27;;
71665;SDS011;59503;53.486;10.196;2023-10-19T09:27:18;31.67;;;13.80;;
71665;SDS011;59503;53.486;10.196;2023-10-19T09:29:45;30.90;;;13.95;;
71665;SDS011;59503;53.486;10.196;2023-10-19T09:32:10;27.83;;;11.70;;
71665;SDS011;59503;53.486;10.196;2023-10-19T09:34:39;30.42;;;14.73;;
71665;SDS011;59503;53.486;10.196;2023-10-19T09:37:09;31.65;;;13.63;;
71665;SDS011;59503;53.486;10.196;2023-10-19T09:39:35;36.25;;;14.27;;
71665;SDS011;59503;53.486;10.196;2023-10-19T09:42:02;34.60;;;14.60;;
71665;SDS011;59503;53.486;10.196;2023-10-19T09:44:44;31.77;;;14.50;;
71665;SDS011;59503;53.486;10.196;2023-10-19T09:47:21;31.67;;;14.30;;
71665;SDS011;59503;53.486;10.196;2023-10-19T09:49:51;33.42;;;14.50;;
71665;SDS011;59503;53.486;10.196;2023-10-19T09:52:17;32.17;;;14.57;;
71665;SDS011;59503;53.486;10.196;2023-10-19T09:57:25;28.97;;;13.53;;
71665;SDS011;59503;53.486;10.196;2023-10-19T09:59:57;30.10;;;15.02;;
71665;SDS011;59503;53.486;10.196;2023-10-19T10:02:34;33.28;;;14.25;;
71665;SDS011;59503;53.486;10.196;2023-10-19T10:04:59;31.85;;;14.07;;
71665;SDS011;59503;53.486;10.196;2023-10-19T10:07:25;30.00;;;13.53;;
71665;SDS011;59503;53.486;10.196;2023-10-19T10:09:50;36.27;;;14.20;;
71665;SDS011;59503;53.486;10.196;2023-10-19T10:14:56;37.47;;;15.20;;
71665;SDS011;59503;53.486;10.196;2023-10-19T10:17:36;27.70;;;14.03;;
71665;SDS011;59503;53.486;10.196;2023-10-19T10:22:42;28.38;;;14.63;;
71665;SDS011;59503;53.486;10.196;2023-10-19T10:25:08;32.58;;;14.65;;
71665;SDS011;59503;53.486;10.196;2023-10-19T10:27:54;34.28;;;14.85;;
71665;SDS011;59503;53.486;10.196;2023-10-19T10:30:20;34.73;;;14.93;;
71665;SDS011;59503;53.486;10.196;2023-10-19T10:38:07;33.63;;;14.88;;
71665;SDS011;59503;53.486;10.196;2023-10-19T10:40:44;28.83;;;15.23;;
71665;SDS011;59503;53.486;10.196;2023-10-19T10:43:11;29.13;;;15.18;;
71665;SDS011;59503;53.486;10.196;2023-10-19T10:45:37;26.83;;;13.38;;
71665;SDS011;59503;53.486;10.196;2023-10-19T10:48:02;29.47;;;14.03;;
71665;SDS011;59503;53.486;10.196;2023-10-19T10:50:29;30.00;;;13.93;;
71665;SDS011;59503;53.486;10.196;2023-10-19T10:52:54;30.43;;;13.73;;
71665;SDS011;59503;53.486;10.196;2023-10-19T10:55:23;30.83;;;15.02;;
71665;SDS011;59503;53.486;10.196;2023-10-19T10:57:52;32.33;;;16.17;;
71665;SDS011;59503;53.486;10.196;2023-10-19T11:00:19;30.10;;;15.47;;
71665;SDS011;59503;53.486;10.196;2023-10-19T11:03:01;28.48;;;14.93;;
71665;SDS011;59503;53.486;10.196;2023-10-19T11:05:37;35.63;;;14.75;;
71665;SDS011;59503;53.486;10.196;2023-10-19T11:08:10;30.17;;;15.30;;
71665;SDS011;59503;53.486;10.196;2023-10-19T11:10:40;29.33;;;15.02;;
71665;SDS011;59503;53.486;10.196;2023-10-19T11:13:11;31.00;;;15.47;;
71665;SDS011;59503;53.486;10.196;2023-10-19T11:15:50;32.38;;;15.85;;
71665;SDS011;59503;53.486;10.196;2023-10-19T11:21:16;37.00;;;15.50;;
71665;SDS011;59503;53.486;10.196;2023-10-19T11:23:47;35.60;;;15.68;;
71665;SDS011;59503;53.486;10.196;2023-10-19T11:26:19;29.00;;;14.57;;
71665;SDS011;59503;53.486;10.196;2023-10-19T11:28:46;30.33;;;15.43;;
71665;SDS011;59503;53.486;10.196;2023-10-19T11:31:22;30.80;;;14.98;;
71665;SDS011;59503;53.486;10.196;2023-10-19T11:33:49;31.75;;;14.00;;
71665;SDS011;59503;53.486;10.196;2023-10-19T11:36:16;34.28;;;16.30;;
71665;SDS011;59503;53.486;10.196;2023-10-19T11:38:43;30.77;;;14.03;;
71665;SDS011;59503;53.486;10.196;2023-10-19T11:41:10;33.63;;;15.52;;
71665;SDS011;59503;53.486;10.196;2023-10-19T11:43:38;39.55;;;16.67;;
71665;SDS011;59503;53.486;10.196;2023-10-19T11:46:05;29.88;;;14.70;;
71665;SDS011;59503;53.486;10.196;2023-10-19T11:48:32;27.73;;;14.27;;
71665;SDS011;59503;53.486;10.196;2023-10-19T11:50:59;28.83;;;14.57;;
71665;SDS011;59503;53.486;10.196;2023-10-19T11:53:26;29.23;;;14.75;;
71665;SDS011;59503;53.486;10.196;2023-10-19T11:55:51;29.83;;;15.02;;
71665;SDS011;59503;53.486;10.196;2023-10-19T11:58:17;30.53;;;14.33;;
71665;SDS011;59503;53.486;10.196;2023-10-19T12:00:42;29.17;;;15.43;;
71665;SDS011;59503;53.486;10.196;2023-10-19T12:03:12;30.27;;;14.33;;
71665;SDS011;59503;53.486;10.196;2023-10-19T12:05:38;31.05;;;15.25;;
71665;SDS011;59503;53.486;10.196;2023-10-19T12:08:04;32.13;;;14.57;;
71665;SDS011;59503;53.486;10.196;2023-10-19T12:10:31;34.97;;;15.40;;
71665;SDS011;59503;53.486;10.196;2023-10-19T12:13:06;27.88;;;14.95;;
71665;SDS011;59503;53.486;10.196;2023-10-19T12:15:33;30.40;;;14.88;;
71665;SDS011;59503;53.486;10.196;2023-10-19T12:17:59;35.67;;;16.27;;
71665;SDS011;59503;53.486;10.196;2023-10-19T12:20:25;33.97;;;15.13;;
71665;SDS011;59503;53.486;10.196;2023-10-19T12:22:51;29.60;;;15.10;;
71665;SDS011;59503;53.486;10.196;2023-10-19T12:25:20;32.42;;;15.40;;
71665;SDS011;59503;53.486;10.196;2023-10-19T12:27:54;34.10;;;15.13;;
71665;SDS011;59503;53.486;10.196;2023-10-19T12:30:29;33.72;;;14.52;;
71665;SDS011;59503;53.486;10.196;2023-10-19T12:33:00;34.25;;;14.35;;
71665;SDS011;59503;53.486;10.196;2023-10-19T12:35:26;30.77;;;15.85;;
71665;SDS011;59503;53.486;10.196;2023-10-19T12:38:09;30.27;;;14.53;;
71665;SDS011;59503;53.486;10.196;2023-10-19T12:40:41;31.73;;;15.35;;
71665;SDS011;59503;53.486;10.196;2023-10-19T12:43:11;29.00;;;14.40;;
71665;SDS011;59503;53.486;10.196;2023-10-19T12:45:37;33.13;;;14.57;;
71665;SDS011;59503;53.486;10.196;2023-10-19T12:48:03;34.70;;;15.43;;
71665;SDS011;59503;53.486;10.196;2023-10-19T12:50:29;34.55;;;15.10;;
71665;SDS011;59503;53.486;10.196;2023-10-19T12:52:56;30.58;;;15.05;;
71665;SDS011;59503;53.486;10.196;2023-10-19T12:55:22;32.17;;;14.77;;
71665;SDS011;59503;53.486;10.196;2023-10-19T12:57:47;32.50;;;15.67;;
71665;SDS011;59503;53.486;10.196;2023-10-19T13:00:16;34.25;;;14.77;;
71665;SDS011;59503;53.486;10.196;2023-10-19T13:03:04;29.08;;;15.40;;
71665;SDS011;59503;53.486;10.196;2023-10-19T13:05:36;32.17;;;16.40;;
71665;SDS011;59503;53.486;10.196;2023-10-19T13:08:05;33.20;;;16.02;;
71665;SDS011;59503;53.486;10.196;2023-10-19T13:10:32;32.27;;;16.10;;
71665;SDS011;59503;53.486;10.196;2023-10-19T13:13:01;37.20;;;15.93;;
71665;SDS011;59503;53.486;10.196;2023-10-19T13:15:32;37.35;;;15.65;;
71665;SDS011;59503;53.486;10.196;2023-10-19T13:18:00;33.05;;;15.60;;
71665;SDS011;59503;53.486;10.196;2023-10-19T13:20:26;33.25;;;15.57;;
71665;SDS011;59503;53.486;10.196;2023-10-19T13:22:53;31.50;;;15.00;;
71665;SDS011;59503;53.486;10.196;2023-10-19T13:25:21;33.28;;;15.35;;
71665;SDS011;59503;53.486;10.196;2023-10-19T13:28:04;30.77;;;14.20;;
71665;SDS011;59503;53.486;10.196;2023-10-19T13:30:37;31.42;;;14.98;;
71665;SDS011;59503;53.486;10.196;2023-10-19T13:33:07;34.30;;;15.13;;
71665;SDS011;59503;53.486;10.196;2023-10-19T13:35:39;27.70;;;14.90;;
71665;SDS011;59503;53.486;10.196;2023-10-19T13:38:08;27.45;;;14.20;;
71665;SDS011;59503;53.486;10.196;2023-10-19T13:40:39;31.77;;;16.00;;
71665;SDS011;59503;53.486;10.196;2023-10-19T13:43:05;31.20;;;13.85;;
71665;SDS011;59503;53.486;10.196;2023-10-19T13:45:36;28.05;;;13.45;;
71665;SDS011;59503;53.486;10.196;2023-10-19T13:48:02;30.93;;;14.50;;
71665;SDS011;59503;53.486;10.196;2023-10-19T13:50:29;30.25;;;14.38;;
71665;SDS011;59503;53.486;10.196;2023-10-19T13:52:56;30.83;;;13.43;;
71665;SDS011;59503;53.486;10.196;2023-10-19T13:55:24;29.55;;;13.15;;
71665;SDS011;59503;53.486;10.196;2023-10-19T13:57:50;24.45;;;12.75;;
71665;SDS011;59503;53.486;10.196;2023-10-19T14:00:17;27.30;;;13.27;;
71665;SDS011;59503;53.486;10.196;2023-10-19T14:03:10;26.42;;;13.07;;
71665;SDS011;59503;53.486;10.196;2023-10-19T14:05:41;27.02;;;12.95;;
71665;SDS011;59503;53.486;10.196;2023-10-19T14:08:12;28.25;;;12.57;;
71665;SDS011;59503;53.486;10.196;2023-10-19T14:10:38;26.27;;;12.53;;
71665;SDS011;59503;53.486;10.196;2023-10-19T14:13:07;27.02;;;12.32;;
71665;SDS011;59503;53.486;10.196;2023-10-19T14:15:33;28.15;;;13.23;;
71665;SDS011;59503;53.486;10.196;2023-10-19T14:17:59;29.58;;;13.70;;
71665;SDS011;59503;53.486;10.196;2023-10-19T14:20:25;26.17;;;12.95;;
71665;SDS011;59503;53.486;10.196;2023-10-19T14:22:53;27.47;;;14.00;;
71665;SDS011;59503;53.486;10.196;2023-10-19T14:25:18;27.00;;;13.10;;
71665;SDS011;59503;53.486;10.196;2023-10-19T14:27:46;29.37;;;13.03;;
71665;SDS011;59503;53.486;10.196;2023-10-19T14:30:16;29.90;;;13.43;;
71665;SDS011;59503;53.486;10.196;2023-10-19T14:32:44;26.55;;;13.43;;
71665;SDS011;59503;53.486;10.196;2023-10-19T14:35:15;31.35;;;13.50;;
71665;SDS011;59503;53.486;10.196;2023-10-19T14:37:43;29.23;;;13.32;;